sensor_id;sensor_type;location;lat;lon;timestamp;P1;durP1;ratioP1;P2;durP2;ratioP2
25962;SDS011;13760;52.588;13.406;2023-08-24T00:00:46;6.60;;;4.40;;
25962;SDS011;13760;52.588;13.406;2023-08-24T00:03:12;8.85;;;4.65;;
25962;SDS011;13760;52.588;13.406;2023-08-24T00:05:37;4.88;;;4.20;;
25962;SDS011;13760;52.588;13.406;2023-08-24T00:08:07;8.23;;;4.45;;
25962;SDS011;13760;52.588;13.406;2023-08-24T00:10:34;5.70;;;4.82;;
25962;SDS011;13760;52.588;13.406;2023-08-24T00:13:00;6.97;;;4.40;;
25962;SDS011;13760;52.588;13.406;2023-08-24T00:15:26;6.65;;;5.00;;
25962;SDS011;13760;52.588;13.406;2023-08-24T00:17:51;6.30;;;4.90;;
25962;SDS011;13760;52.588;13.406;2023-08-24T00:20:17;9.50;;;4.90;;
25962;SDS011;13760;52.588;13.406;2023-08-24T00:22:44;8.15;;;4.65;;
25962;SDS011;13760;52.588;13.406;2023-08-24T00:25:11;5.30;;;4.53;;
25962;SDS011;13760;52.588;13.406;2023-08-24T00:27:37;8.98;;;4.25;;
25962;SDS011;13760;52.588;13.406;2023-08-24T00:30:04;6.28;;;4.88;;
25962;SDS011;13760;52.588;13.406;2023-08-24T00:32:31;7.45;;;4.78;;
25962;SDS011;13760;52.588;13.406;2023-08-24T00:35:02;7.90;;;4.47;;
25962;SDS011;13760;52.588;13.406;2023-08-24T00:37:29;7.53;;;4.82;;
25962;SDS011;13760;52.588;13.406;2023-08-24T00:39:55;6.40;;;4.80;;
25962;SDS011;13760;52.588;13.406;2023-08-24T00:42:21;7.80;;;4.75;;
25962;SDS011;13760;52.588;13.406;2023-08-24T00:44:47;6.25;;;4.93;;
25962;SDS011;13760;52.588;13.406;2023-08-24T00:47:13;9.00;;;5.03;;
25962;SDS011;13760;52.588;13.406;2023-08-24T00:49:39;7.07;;;4.65;;
25962;SDS011;13760;52.588;13.406;2023-08-24T00:52:05;6.38;;;4.90;;
25962;SDS011;13760;52.588;13.406;2023-08-24T00:54:31;8.57;;;5.28;;
25962;SDS011;13760;52.588;13.406;2023-08-24T00:56:57;7.90;;;5.00;;
25962;SDS011;13760;52.588;13.406;2023-08-24T00:59:22;7.38;;;5.43;;
25962;SDS011;13760;52.588;13.406;2023-08-24T01:01:48;7.55;;;5.28;;
25962;SDS011;13760;52.588;13.406;2023-08-24T01:04:15;7.65;;;5.15;;
25962;SDS011;13760;52.588;13.406;2023-08-24T01:06:41;9.98;;;5.82;;
25962;SDS011;13760;52.588;13.406;2023-08-24T01:09:06;8.30;;;5.40;;
25962;SDS011;13760;52.588;13.406;2023-08-24T01:11:41;8.55;;;5.32;;
25962;SDS011;13760;52.588;13.406;2023-08-24T01:14:22;7.43;;;5.10;;
25962;SDS011;13760;52.588;13.406;2023-08-24T01:16:56;5.97;;;4.85;;
25962;SDS011;13760;52.588;13.406;2023-08-24T01:19:32;7.97;;;4.78;;
25962;SDS011;13760;52.588;13.406;2023-08-24T01:22:07;8.00;;;5.32;;
25962;SDS011;13760;52.588;13.406;2023-08-24T01:24:45;7.90;;;6.00;;
25962;SDS011;13760;52.588;13.406;2023-08-24T01:27:16;6.82;;;5.55;;
25962;SDS011;13760;52.588;13.406;2023-08-24T01:29:44;9.93;;;5.95;;
25962;SDS011;13760;52.588;13.406;2023-08-24T01:32:10;9.00;;;5.97;;
25962;SDS011;13760;52.588;13.406;2023-08-24T01:34:39;8.80;;;5.80;;
25962;SDS011;13760;52.588;13.406;2023-08-24T01:37:05;7.93;;;5.95;;
25962;SDS011;13760;52.588;13.406;2023-08-24T01:40:16;11.73;;;5.50;;
25962;SDS011;13760;52.588;13.406;2023-08-24T01:42:59;8.07;;;5.57;;
25962;SDS011;13760;52.588;13.406;2023-08-24T01:45:28;10.27;;;5.88;;
25962;SDS011;13760;52.588;13.406;2023-08-24T01:47:56;8.90;;;5.72;;
25962;SDS011;13760;52.588;13.406;2023-08-24T01:50:23;9.52;;;5.72;;
25962;SDS011;13760;52.588;13.406;2023-08-24T01:52:49;8.32;;;6.10;;
25962;SDS011;13760;52.588;13.406;2023-08-24T01:55:17;6.95;;;5.60;;
25962;SDS011;13760;52.588;13.406;2023-08-24T01:57:43;7.60;;;5.75;;
25962;SDS011;13760;52.588;13.406;2023-08-24T02:00:09;7.35;;;5.63;;
25962;SDS011;13760;52.588;13.406;2023-08-24T02:02:35;6.95;;;5.82;;
25962;SDS011;13760;52.588;13.406;2023-08-24T02:05:01;6.72;;;5.72;;
25962;SDS011;13760;52.588;13.406;2023-08-24T02:07:28;7.05;;;5.88;;
25962;SDS011;13760;52.588;13.406;2023-08-24T02:09:53;8.00;;;6.03;;
25962;SDS011;13760;52.588;13.406;2023-08-24T02:12:19;9.00;;;5.15;;
25962;SDS011;13760;52.588;13.406;2023-08-24T02:14:44;8.20;;;5.40;;
25962;SDS011;13760;52.588;13.406;2023-08-24T02:17:10;7.63;;;5.65;;
25962;SDS011;13760;52.588;13.406;2023-08-24T02:19:36;8.20;;;5.97;;
25962;SDS011;13760;52.588;13.406;2023-08-24T02:22:01;8.90;;;5.65;;
25962;SDS011;13760;52.588;13.406;2023-08-24T02:24:27;8.05;;;5.95;;
25962;SDS011;13760;52.588;13.406;2023-08-24T02:26:53;6.82;;;5.63;;
25962;SDS011;13760;52.588;13.406;2023-08-24T02:29:18;9.93;;;6.15;;
25962;SDS011;13760;52.588;13.406;2023-08-24T02:31:44;7.28;;;5.53;;
25962;SDS011;13760;52.588;13.406;2023-08-24T02:34:09;9.10;;;5.70;;
25962;SDS011;13760;52.588;13.406;2023-08-24T02:36:35;8.05;;;5.90;;
25962;SDS011;13760;52.588;13.406;2023-08-24T02:39:00;9.48;;;5.80;;
25962;SDS011;13760;52.588;13.406;2023-08-24T02:41:26;9.40;;;5.28;;
25962;SDS011;13760;52.588;13.406;2023-08-24T02:43:52;7.35;;;5.53;;
25962;SDS011;13760;52.588;13.406;2023-08-24T02:46:18;8.90;;;5.90;;
25962;SDS011;13760;52.588;13.406;2023-08-24T02:48:45;9.75;;;6.10;;
25962;SDS011;13760;52.588;13.406;2023-08-24T02:51:11;9.45;;;6.05;;
25962;SDS011;13760;52.588;13.406;2023-08-24T02:53:37;6.75;;;5.22;;
25962;SDS011;13760;52.588;13.406;2023-08-24T02:56:02;7.63;;;5.55;;
25962;SDS011;13760;52.588;13.406;2023-08-24T02:58:28;10.20;;;5.63;;
25962;SDS011;13760;52.588;13.406;2023-08-24T03:00:55;9.70;;;5.90;;
25962;SDS011;13760;52.588;13.406;2023-08-24T03:03:20;7.50;;;5.63;;
25962;SDS011;13760;52.588;13.406;2023-08-24T03:08:21;8.15;;;5.80;;
25962;SDS011;13760;52.588;13.406;2023-08-24T03:10:47;8.15;;;5.38;;
25962;SDS011;13760;52.588;13.406;2023-08-24T03:13:13;11.55;;;5.40;;
25962;SDS011;13760;52.588;13.406;2023-08-24T03:15:39;8.43;;;5.68;;
25962;SDS011;13760;52.588;13.406;2023-08-24T03:18:04;7.35;;;5.22;;
25962;SDS011;13760;52.588;13.406;2023-08-24T03:20:30;11.75;;;5.45;;
25962;SDS011;13760;52.588;13.406;2023-08-24T03:22:55;8.70;;;5.47;;
25962;SDS011;13760;52.588;13.406;2023-08-24T03:25:22;12.85;;;5.68;;
25962;SDS011;13760;52.588;13.406;2023-08-24T03:27:48;7.93;;;5.57;;
25962;SDS011;13760;52.588;13.406;2023-08-24T03:30:13;9.98;;;5.75;;
25962;SDS011;13760;52.588;13.406;2023-08-24T03:32:39;6.72;;;5.68;;
25962;SDS011;13760;52.588;13.406;2023-08-24T03:35:05;7.75;;;5.57;;
25962;SDS011;13760;52.588;13.406;2023-08-24T03:37:31;9.65;;;5.68;;
25962;SDS011;13760;52.588;13.406;2023-08-24T03:39:57;6.88;;;5.43;;
25962;SDS011;13760;52.588;13.406;2023-08-24T03:42:23;6.90;;;5.30;;
25962;SDS011;13760;52.588;13.406;2023-08-24T03:44:48;10.50;;;5.45;;
25962;SDS011;13760;52.588;13.406;2023-08-24T03:47:14;8.88;;;5.70;;
25962;SDS011;13760;52.588;13.406;2023-08-24T03:49:41;7.68;;;5.45;;
25962;SDS011;13760;52.588;13.406;2023-08-24T03:52:08;8.23;;;4.93;;
25962;SDS011;13760;52.588;13.406;2023-08-24T03:54:33;8.38;;;5.47;;
25962;SDS011;13760;52.588;13.406;2023-08-24T03:56:59;7.35;;;5.60;;
25962;SDS011;13760;52.588;13.406;2023-08-24T03:59:24;7.60;;;5.00;;
25962;SDS011;13760;52.588;13.406;2023-08-24T04:01:50;8.57;;;5.50;;
25962;SDS011;13760;52.588;13.406;2023-08-24T04:04:15;9.07;;;5.53;;
25962;SDS011;13760;52.588;13.406;2023-08-24T04:06:41;8.65;;;5.63;;
25962;SDS011;13760;52.588;13.406;2023-08-24T04:09:06;10.32;;;5.70;;
25962;SDS011;13760;52.588;13.406;2023-08-24T04:11:32;8.40;;;5.47;;
25962;SDS011;13760;52.588;13.406;2023-08-24T04:13:57;9.30;;;5.38;;
25962;SDS011;13760;52.588;13.406;2023-08-24T04:16:23;7.90;;;5.70;;
25962;SDS011;13760;52.588;13.406;2023-08-24T04:18:48;8.45;;;5.72;;
25962;SDS011;13760;52.588;13.406;2023-08-24T04:21:14;10.07;;;5.70;;
25962;SDS011;13760;52.588;13.406;2023-08-24T04:23:39;7.43;;;5.50;;
25962;SDS011;13760;52.588;13.406;2023-08-24T04:26:09;7.93;;;5.53;;
25962;SDS011;13760;52.588;13.406;2023-08-24T04:28:38;6.18;;;5.05;;
25962;SDS011;13760;52.588;13.406;2023-08-24T04:31:04;7.45;;;5.05;;
25962;SDS011;13760;52.588;13.406;2023-08-24T04:33:29;10.32;;;6.10;;
25962;SDS011;13760;52.588;13.406;2023-08-24T04:35:55;7.35;;;4.75;;
25962;SDS011;13760;52.588;13.406;2023-08-24T04:38:21;7.85;;;4.82;;
25962;SDS011;13760;52.588;13.406;2023-08-24T04:40:48;9.57;;;5.10;;
25962;SDS011;13760;52.588;13.406;2023-08-24T04:43:18;7.72;;;5.25;;
25962;SDS011;13760;52.588;13.406;2023-08-24T04:45:48;7.93;;;5.40;;
25962;SDS011;13760;52.588;13.406;2023-08-24T04:48:16;9.13;;;5.80;;
25962;SDS011;13760;52.588;13.406;2023-08-24T04:50:43;9.68;;;5.55;;
25962;SDS011;13760;52.588;13.406;2023-08-24T04:53:09;10.73;;;5.10;;
25962;SDS011;13760;52.588;13.406;2023-08-24T04:55:34;9.38;;;5.47;;
25962;SDS011;13760;52.588;13.406;2023-08-24T04:58:00;7.15;;;5.28;;
25962;SDS011;13760;52.588;13.406;2023-08-24T05:00:25;8.77;;;5.47;;
25962;SDS011;13760;52.588;13.406;2023-08-24T05:02:51;7.38;;;5.40;;
25962;SDS011;13760;52.588;13.406;2023-08-24T05:05:17;10.40;;;5.15;;
25962;SDS011;13760;52.588;13.406;2023-08-24T05:07:43;7.95;;;5.38;;
25962;SDS011;13760;52.588;13.406;2023-08-24T05:10:13;8.68;;;5.50;;
25962;SDS011;13760;52.588;13.406;2023-08-24T05:12:42;6.88;;;4.90;;
25962;SDS011;13760;52.588;13.406;2023-08-24T05:15:07;6.55;;;4.97;;
25962;SDS011;13760;52.588;13.406;2023-08-24T05:17:33;5.90;;;4.80;;
25962;SDS011;13760;52.588;13.406;2023-08-24T05:19:59;8.85;;;5.00;;
25962;SDS011;13760;52.588;13.406;2023-08-24T05:22:24;7.13;;;4.65;;
25962;SDS011;13760;52.588;13.406;2023-08-24T05:24:50;6.65;;;4.35;;
25962;SDS011;13760;52.588;13.406;2023-08-24T05:27:16;9.68;;;3.80;;
25962;SDS011;13760;52.588;13.406;2023-08-24T05:29:42;4.97;;;3.15;;
25962;SDS011;13760;52.588;13.406;2023-08-24T05:32:08;5.30;;;2.85;;
25962;SDS011;13760;52.588;13.406;2023-08-24T05:34:33;6.07;;;3.40;;
25962;SDS011;13760;52.588;13.406;2023-08-24T05:36:59;6.50;;;3.50;;
25962;SDS011;13760;52.588;13.406;2023-08-24T05:39:24;4.30;;;2.95;;
25962;SDS011;13760;52.588;13.406;2023-08-24T05:41:50;7.55;;;3.20;;
25962;SDS011;13760;52.588;13.406;2023-08-24T05:44:17;4.32;;;2.80;;
25962;SDS011;13760;52.588;13.406;2023-08-24T05:46:43;5.88;;;3.25;;
25962;SDS011;13760;52.588;13.406;2023-08-24T05:49:09;5.32;;;3.10;;
25962;SDS011;13760;52.588;13.406;2023-08-24T05:51:34;6.95;;;2.85;;
25962;SDS011;13760;52.588;13.406;2023-08-24T05:54:01;6.68;;;3.13;;
25962;SDS011;13760;52.588;13.406;2023-08-24T05:56:26;4.45;;;2.88;;
25962;SDS011;13760;52.588;13.406;2023-08-24T05:58:51;8.73;;;3.03;;
25962;SDS011;13760;52.588;13.406;2023-08-24T06:01:18;6.47;;;2.85;;
25962;SDS011;13760;52.588;13.406;2023-08-24T06:03:44;4.38;;;2.75;;
25962;SDS011;13760;52.588;13.406;2023-08-24T06:06:09;5.30;;;3.17;;
25962;SDS011;13760;52.588;13.406;2023-08-24T06:08:35;9.27;;;3.10;;
25962;SDS011;13760;52.588;13.406;2023-08-24T06:11:01;6.68;;;2.75;;
25962;SDS011;13760;52.588;13.406;2023-08-24T06:13:27;5.13;;;2.90;;
25962;SDS011;13760;52.588;13.406;2023-08-24T06:15:53;6.10;;;2.85;;
25962;SDS011;13760;52.588;13.406;2023-08-24T06:18:19;7.43;;;3.17;;
25962;SDS011;13760;52.588;13.406;2023-08-24T06:20:45;10.50;;;3.15;;
25962;SDS011;13760;52.588;13.406;2023-08-24T06:23:11;5.93;;;2.80;;
25962;SDS011;13760;52.588;13.406;2023-08-24T06:25:38;6.22;;;3.03;;
25962;SDS011;13760;52.588;13.406;2023-08-24T06:28:04;8.93;;;2.88;;
25962;SDS011;13760;52.588;13.406;2023-08-24T06:30:29;9.55;;;2.97;;
25962;SDS011;13760;52.588;13.406;2023-08-24T06:33:02;5.03;;;2.72;;
25962;SDS011;13760;52.588;13.406;2023-08-24T06:35:28;5.53;;;2.47;;
25962;SDS011;13760;52.588;13.406;2023-08-24T06:37:54;9.65;;;2.92;;
25962;SDS011;13760;52.588;13.406;2023-08-24T06:40:19;8.55;;;3.00;;
25962;SDS011;13760;52.588;13.406;2023-08-24T06:42:45;7.43;;;2.80;;
25962;SDS011;13760;52.588;13.406;2023-08-24T06:45:11;9.43;;;2.80;;
25962;SDS011;13760;52.588;13.406;2023-08-24T06:47:37;5.25;;;2.58;;
25962;SDS011;13760;52.588;13.406;2023-08-24T06:50:04;5.43;;;2.70;;
25962;SDS011;13760;52.588;13.406;2023-08-24T06:52:30;5.32;;;2.25;;
25962;SDS011;13760;52.588;13.406;2023-08-24T06:54:56;7.22;;;2.70;;
25962;SDS011;13760;52.588;13.406;2023-08-24T06:57:22;5.10;;;2.80;;
25962;SDS011;13760;52.588;13.406;2023-08-24T06:59:47;6.13;;;2.70;;
25962;SDS011;13760;52.588;13.406;2023-08-24T07:02:13;5.63;;;2.50;;
25962;SDS011;13760;52.588;13.406;2023-08-24T07:04:42;9.50;;;2.60;;
25962;SDS011;13760;52.588;13.406;2023-08-24T07:07:09;4.70;;;2.53;;
25962;SDS011;13760;52.588;13.406;2023-08-24T07:09:35;6.88;;;2.88;;
25962;SDS011;13760;52.588;13.406;2023-08-24T07:12:04;6.47;;;2.88;;
25962;SDS011;13760;52.588;13.406;2023-08-24T07:14:32;5.63;;;3.05;;
25962;SDS011;13760;52.588;13.406;2023-08-24T07:17:01;7.18;;;3.05;;
25962;SDS011;13760;52.588;13.406;2023-08-24T07:19:29;11.27;;;3.30;;
25962;SDS011;13760;52.588;13.406;2023-08-24T07:21:55;4.97;;;3.22;;
25962;SDS011;13760;52.588;13.406;2023-08-24T07:24:20;5.60;;;2.85;;
25962;SDS011;13760;52.588;13.406;2023-08-24T07:26:47;5.05;;;3.03;;
25962;SDS011;13760;52.588;13.406;2023-08-24T07:29:13;6.93;;;3.47;;
25962;SDS011;13760;52.588;13.406;2023-08-24T07:31:39;8.35;;;3.30;;
25962;SDS011;13760;52.588;13.406;2023-08-24T07:34:04;6.82;;;3.13;;
25962;SDS011;13760;52.588;13.406;2023-08-24T07:36:30;8.18;;;3.40;;
25962;SDS011;13760;52.588;13.406;2023-08-24T07:38:56;7.38;;;3.42;;
25962;SDS011;13760;52.588;13.406;2023-08-24T07:41:21;8.20;;;3.17;;
25962;SDS011;13760;52.588;13.406;2023-08-24T07:43:47;8.50;;;2.97;;
25962;SDS011;13760;52.588;13.406;2023-08-24T07:46:12;5.25;;;3.10;;
25962;SDS011;13760;52.588;13.406;2023-08-24T07:48:38;7.18;;;2.63;;
25962;SDS011;13760;52.588;13.406;2023-08-24T07:51:04;6.28;;;2.72;;
25962;SDS011;13760;52.588;13.406;2023-08-24T07:53:32;6.88;;;2.38;;
25962;SDS011;13760;52.588;13.406;2023-08-24T07:55:58;7.28;;;2.58;;
25962;SDS011;13760;52.588;13.406;2023-08-24T07:58:24;4.70;;;2.83;;
25962;SDS011;13760;52.588;13.406;2023-08-24T08:00:50;7.88;;;2.60;;
25962;SDS011;13760;52.588;13.406;2023-08-24T08:03:18;4.40;;;2.28;;
25962;SDS011;13760;52.588;13.406;2023-08-24T08:05:45;7.13;;;2.50;;
25962;SDS011;13760;52.588;13.406;2023-08-24T08:08:13;4.43;;;2.60;;
25962;SDS011;13760;52.588;13.406;2023-08-24T08:10:39;6.00;;;2.20;;
25962;SDS011;13760;52.588;13.406;2023-08-24T08:13:06;6.65;;;2.30;;
25962;SDS011;13760;52.588;13.406;2023-08-24T08:15:32;4.55;;;2.00;;
25962;SDS011;13760;52.588;13.406;2023-08-24T08:17:57;6.38;;;2.60;;
25962;SDS011;13760;52.588;13.406;2023-08-24T08:20:23;5.97;;;2.30;;
25962;SDS011;13760;52.588;13.406;2023-08-24T08:22:48;2.55;;;2.08;;
25962;SDS011;13760;52.588;13.406;2023-08-24T08:25:15;5.25;;;2.40;;
25962;SDS011;13760;52.588;13.406;2023-08-24T08:27:46;6.85;;;2.30;;
25962;SDS011;13760;52.588;13.406;2023-08-24T08:30:11;4.32;;;1.85;;
25962;SDS011;13760;52.588;13.406;2023-08-24T08:32:37;4.25;;;2.28;;
25962;SDS011;13760;52.588;13.406;2023-08-24T08:35:05;11.50;;;2.00;;
25962;SDS011;13760;52.588;13.406;2023-08-24T08:37:31;7.10;;;2.47;;
25962;SDS011;13760;52.588;13.406;2023-08-24T08:39:57;9.55;;;2.10;;
25962;SDS011;13760;52.588;13.406;2023-08-24T08:42:23;4.78;;;2.28;;
25962;SDS011;13760;52.588;13.406;2023-08-24T08:44:49;3.55;;;1.90;;
25962;SDS011;13760;52.588;13.406;2023-08-24T08:47:14;5.28;;;2.30;;
25962;SDS011;13760;52.588;13.406;2023-08-24T08:49:42;5.10;;;2.30;;
25962;SDS011;13760;52.588;13.406;2023-08-24T08:52:10;5.68;;;2.33;;
25962;SDS011;13760;52.588;13.406;2023-08-24T08:54:36;6.63;;;2.38;;
25962;SDS011;13760;52.588;13.406;2023-08-24T08:57:02;5.07;;;2.10;;
25962;SDS011;13760;52.588;13.406;2023-08-24T08:59:28;4.80;;;2.10;;
25962;SDS011;13760;52.588;13.406;2023-08-24T09:01:55;6.80;;;2.35;;
25962;SDS011;13760;52.588;13.406;2023-08-24T09:04:23;4.75;;;2.25;;
25962;SDS011;13760;52.588;13.406;2023-08-24T09:06:49;9.18;;;2.58;;
25962;SDS011;13760;52.588;13.406;2023-08-24T09:09:15;6.47;;;2.30;;
25962;SDS011;13760;52.588;13.406;2023-08-24T09:11:41;8.48;;;2.25;;
25962;SDS011;13760;52.588;13.406;2023-08-24T09:14:12;9.00;;;2.30;;
25962;SDS011;13760;52.588;13.406;2023-08-24T09:16:37;4.95;;;2.30;;
25962;SDS011;13760;52.588;13.406;2023-08-24T09:19:05;10.02;;;2.47;;
25962;SDS011;13760;52.588;13.406;2023-08-24T09:21:32;5.40;;;2.00;;
25962;SDS011;13760;52.588;13.406;2023-08-24T09:24:05;4.88;;;1.70;;
25962;SDS011;13760;52.588;13.406;2023-08-24T09:26:44;2.33;;;1.45;;
25962;SDS011;13760;52.588;13.406;2023-08-24T09:29:14;3.50;;;2.00;;
25962;SDS011;13760;52.588;13.406;2023-08-24T09:31:41;6.88;;;1.92;;
25962;SDS011;13760;52.588;13.406;2023-08-24T09:34:10;6.22;;;2.00;;
25962;SDS011;13760;52.588;13.406;2023-08-24T09:36:39;7.88;;;1.90;;
25962;SDS011;13760;52.588;13.406;2023-08-24T09:39:05;5.43;;;1.75;;
25962;SDS011;13760;52.588;13.406;2023-08-24T09:41:41;7.97;;;1.80;;
25962;SDS011;13760;52.588;13.406;2023-08-24T09:44:19;5.32;;;1.90;;
25962;SDS011;13760;52.588;13.406;2023-08-24T09:46:45;4.28;;;1.65;;
25962;SDS011;13760;52.588;13.406;2023-08-24T09:49:11;3.33;;;1.48;;
25962;SDS011;13760;52.588;13.406;2023-08-24T09:51:37;4.47;;;1.60;;
25962;SDS011;13760;52.588;13.406;2023-08-24T09:54:08;2.95;;;1.65;;
25962;SDS011;13760;52.588;13.406;2023-08-24T09:56:35;6.22;;;2.13;;
25962;SDS011;13760;52.588;13.406;2023-08-24T09:59:05;4.40;;;1.70;;
25962;SDS011;13760;52.588;13.406;2023-08-24T10:01:42;5.80;;;1.73;;
25962;SDS011;13760;52.588;13.406;2023-08-24T10:04:09;5.75;;;1.90;;
25962;SDS011;13760;52.588;13.406;2023-08-24T10:06:36;6.00;;;1.70;;
25962;SDS011;13760;52.588;13.406;2023-08-24T10:09:04;5.60;;;1.60;;
25962;SDS011;13760;52.588;13.406;2023-08-24T10:11:34;2.58;;;1.48;;
25962;SDS011;13760;52.588;13.406;2023-08-24T10:14:05;5.45;;;1.75;;
25962;SDS011;13760;52.588;13.406;2023-08-24T10:16:54;3.92;;;1.38;;
25962;SDS011;13760;52.588;13.406;2023-08-24T10:19:21;3.97;;;1.60;;
25962;SDS011;13760;52.588;13.406;2023-08-24T10:21:48;7.82;;;1.70;;
25962;SDS011;13760;52.588;13.406;2023-08-24T10:24:15;3.97;;;1.75;;
25962;SDS011;13760;52.588;13.406;2023-08-24T10:26:41;3.08;;;1.60;;
25962;SDS011;13760;52.588;13.406;2023-08-24T10:29:08;4.20;;;1.60;;
25962;SDS011;13760;52.588;13.406;2023-08-24T10:31:36;5.65;;;1.48;;
25962;SDS011;13760;52.588;13.406;2023-08-24T10:34:05;3.58;;;1.80;;
25962;SDS011;13760;52.588;13.406;2023-08-24T10:36:31;5.38;;;2.00;;
25962;SDS011;13760;52.588;13.406;2023-08-24T10:38:57;4.18;;;1.80;;
25962;SDS011;13760;52.588;13.406;2023-08-24T10:41:30;3.80;;;1.50;;
25962;SDS011;13760;52.588;13.406;2023-08-24T10:44:47;4.50;;;1.90;;
25962;SDS011;13760;52.588;13.406;2023-08-24T10:49:56;4.32;;;1.60;;
25962;SDS011;13760;52.588;13.406;2023-08-24T10:55:03;5.93;;;1.77;;
25962;SDS011;13760;52.588;13.406;2023-08-24T10:57:36;5.72;;;2.20;;
25962;SDS011;13760;52.588;13.406;2023-08-24T11:02:45;6.53;;;1.70;;
25962;SDS011;13760;52.588;13.406;2023-08-24T11:05:16;5.20;;;2.03;;
25962;SDS011;13760;52.588;13.406;2023-08-24T11:10:31;3.22;;;1.90;;
25962;SDS011;13760;52.588;13.406;2023-08-24T11:13:06;7.75;;;2.05;;
25962;SDS011;13760;52.588;13.406;2023-08-24T11:18:22;5.57;;;2.08;;
25962;SDS011;13760;52.588;13.406;2023-08-24T11:21:04;5.45;;;2.60;;
25962;SDS011;13760;52.588;13.406;2023-08-24T11:23:31;3.78;;;2.00;;
25962;SDS011;13760;52.588;13.406;2023-08-24T11:25:58;5.55;;;2.00;;
25962;SDS011;13760;52.588;13.406;2023-08-24T11:28:26;4.75;;;2.10;;
25962;SDS011;13760;52.588;13.406;2023-08-24T11:30:53;3.05;;;2.15;;
25962;SDS011;13760;52.588;13.406;2023-08-24T11:35:57;6.00;;;2.33;;
25962;SDS011;13760;52.588;13.406;2023-08-24T11:38:23;10.55;;;3.08;;
25962;SDS011;13760;52.588;13.406;2023-08-24T11:40:49;10.70;;;2.50;;
25962;SDS011;13760;52.588;13.406;2023-08-24T11:43:23;4.30;;;2.50;;
25962;SDS011;13760;52.588;13.406;2023-08-24T11:45:50;5.50;;;2.33;;
25962;SDS011;13760;52.588;13.406;2023-08-24T11:48:16;5.47;;;2.47;;
25962;SDS011;13760;52.588;13.406;2023-08-24T11:50:41;4.00;;;2.35;;
25962;SDS011;13760;52.588;13.406;2023-08-24T11:53:07;5.68;;;2.60;;
25962;SDS011;13760;52.588;13.406;2023-08-24T11:55:33;4.10;;;2.78;;
25962;SDS011;13760;52.588;13.406;2023-08-24T11:57:59;7.18;;;2.45;;
25962;SDS011;13760;52.588;13.406;2023-08-24T12:00:25;7.28;;;2.60;;
25962;SDS011;13760;52.588;13.406;2023-08-24T12:02:51;6.60;;;2.97;;
25962;SDS011;13760;52.588;13.406;2023-08-24T12:05:20;4.22;;;2.20;;
25962;SDS011;13760;52.588;13.406;2023-08-24T12:07:47;10.85;;;2.67;;
25962;SDS011;13760;52.588;13.406;2023-08-24T12:10:13;6.05;;;2.47;;
25962;SDS011;13760;52.588;13.406;2023-08-24T12:12:38;3.58;;;2.40;;
25962;SDS011;13760;52.588;13.406;2023-08-24T12:15:04;3.75;;;2.30;;
25962;SDS011;13760;52.588;13.406;2023-08-24T12:17:30;5.65;;;2.17;;
25962;SDS011;13760;52.588;13.406;2023-08-24T12:20:06;7.15;;;2.35;;
25962;SDS011;13760;52.588;13.406;2023-08-24T12:25:03;4.90;;;2.58;;
25962;SDS011;13760;52.588;13.406;2023-08-24T12:27:29;5.65;;;2.92;;
25962;SDS011;13760;52.588;13.406;2023-08-24T12:29:54;3.92;;;2.30;;
25962;SDS011;13760;52.588;13.406;2023-08-24T12:32:24;4.78;;;2.33;;
25962;SDS011;13760;52.588;13.406;2023-08-24T12:34:54;5.30;;;2.35;;
25962;SDS011;13760;52.588;13.406;2023-08-24T12:37:20;8.10;;;2.90;;
25962;SDS011;13760;52.588;13.406;2023-08-24T12:39:46;6.03;;;2.80;;
25962;SDS011;13760;52.588;13.406;2023-08-24T12:42:13;7.53;;;2.50;;
25962;SDS011;13760;52.588;13.406;2023-08-24T12:44:39;5.20;;;2.35;;
25962;SDS011;13760;52.588;13.406;2023-08-24T12:47:04;5.53;;;2.83;;
25962;SDS011;13760;52.588;13.406;2023-08-24T12:49:30;7.35;;;2.58;;
25962;SDS011;13760;52.588;13.406;2023-08-24T12:51:55;10.60;;;2.33;;
25962;SDS011;13760;52.588;13.406;2023-08-24T12:54:21;5.90;;;2.65;;
25962;SDS011;13760;52.588;13.406;2023-08-24T12:56:49;2.70;;;2.03;;
25962;SDS011;13760;52.588;13.406;2023-08-24T12:59:15;3.55;;;2.13;;
25962;SDS011;13760;52.588;13.406;2023-08-24T13:01:40;7.03;;;2.65;;
25962;SDS011;13760;52.588;13.406;2023-08-24T13:04:07;8.13;;;2.38;;
25962;SDS011;13760;52.588;13.406;2023-08-24T13:06:32;4.93;;;2.40;;
25962;SDS011;13760;52.588;13.406;2023-08-24T13:08:59;6.20;;;2.40;;
25962;SDS011;13760;52.588;13.406;2023-08-24T13:11:24;5.57;;;2.63;;
25962;SDS011;13760;52.588;13.406;2023-08-24T13:13:50;7.07;;;2.75;;
25962;SDS011;13760;52.588;13.406;2023-08-24T13:16:19;8.35;;;2.65;;
25962;SDS011;13760;52.588;13.406;2023-08-24T13:18:44;7.22;;;2.22;;
25962;SDS011;13760;52.588;13.406;2023-08-24T13:21:10;3.58;;;2.03;;
25962;SDS011;13760;52.588;13.406;2023-08-24T13:23:35;6.25;;;2.28;;
25962;SDS011;13760;52.588;13.406;2023-08-24T13:26:01;6.35;;;2.50;;
25962;SDS011;13760;52.588;13.406;2023-08-24T13:28:27;6.50;;;2.25;;
25962;SDS011;13760;52.588;13.406;2023-08-24T13:30:54;4.38;;;2.30;;
25962;SDS011;13760;52.588;13.406;2023-08-24T13:33:20;4.20;;;2.53;;
25962;SDS011;13760;52.588;13.406;2023-08-24T13:35:46;4.95;;;2.33;;
25962;SDS011;13760;52.588;13.406;2023-08-24T13:38:12;4.65;;;2.50;;
25962;SDS011;13760;52.588;13.406;2023-08-24T13:40:37;6.70;;;2.45;;
25962;SDS011;13760;52.588;13.406;2023-08-24T13:43:03;5.07;;;2.33;;
25962;SDS011;13760;52.588;13.406;2023-08-24T13:45:32;6.40;;;2.10;;
25962;SDS011;13760;52.588;13.406;2023-08-24T13:47:59;4.03;;;2.17;;
25962;SDS011;13760;52.588;13.406;2023-08-24T13:50:25;6.00;;;2.47;;
25962;SDS011;13760;52.588;13.406;2023-08-24T13:52:51;6.88;;;2.25;;
25962;SDS011;13760;52.588;13.406;2023-08-24T13:55:17;6.55;;;2.50;;
25962;SDS011;13760;52.588;13.406;2023-08-24T13:57:42;6.50;;;2.20;;
25962;SDS011;13760;52.588;13.406;2023-08-24T14:00:08;13.27;;;12.13;;
25962;SDS011;13760;52.588;13.406;2023-08-24T14:02:35;6.53;;;2.13;;
25962;SDS011;13760;52.588;13.406;2023-08-24T14:05:00;3.80;;;2.10;;
25962;SDS011;13760;52.588;13.406;2023-08-24T14:07:26;3.42;;;2.20;;
25962;SDS011;13760;52.588;13.406;2023-08-24T14:09:52;6.93;;;2.33;;
25962;SDS011;13760;52.588;13.406;2023-08-24T14:12:18;4.03;;;2.13;;
25962;SDS011;13760;52.588;13.406;2023-08-24T14:14:43;3.47;;;2.20;;
25962;SDS011;13760;52.588;13.406;2023-08-24T14:17:09;3.50;;;2.67;;
25962;SDS011;13760;52.588;13.406;2023-08-24T14:19:34;4.65;;;2.72;;
25962;SDS011;13760;52.588;13.406;2023-08-24T14:22:00;4.75;;;2.60;;
25962;SDS011;13760;52.588;13.406;2023-08-24T14:24:25;6.22;;;2.47;;
25962;SDS011;13760;52.588;13.406;2023-08-24T14:26:51;8.23;;;2.40;;
25962;SDS011;13760;52.588;13.406;2023-08-24T14:29:16;6.13;;;2.80;;
25962;SDS011;13760;52.588;13.406;2023-08-24T14:31:42;4.10;;;2.40;;
25962;SDS011;13760;52.588;13.406;2023-08-24T14:34:07;6.32;;;2.40;;
25962;SDS011;13760;52.588;13.406;2023-08-24T14:36:33;6.22;;;2.63;;
25962;SDS011;13760;52.588;13.406;2023-08-24T14:38:59;4.72;;;2.30;;
25962;SDS011;13760;52.588;13.406;2023-08-24T14:41:24;5.38;;;2.38;;
25962;SDS011;13760;52.588;13.406;2023-08-24T14:43:50;4.47;;;2.10;;
25962;SDS011;13760;52.588;13.406;2023-08-24T14:46:15;5.07;;;2.25;;
25962;SDS011;13760;52.588;13.406;2023-08-24T14:48:41;5.55;;;2.30;;
25962;SDS011;13760;52.588;13.406;2023-08-24T14:51:07;6.35;;;2.20;;
25962;SDS011;13760;52.588;13.406;2023-08-24T14:53:32;6.05;;;2.40;;